createdAt,value
2017-10-08T00:00:50.032Z,89.03
2017-10-08T00:01:50.048Z,88.64
2017-10-08T00:02:50.062Z,88.26
2017-10-08T00:03:50.081Z,88.64
2017-10-08T00:04:50.097Z,87.02
2017-10-08T00:05:50.122Z,86.16
2017-10-08T00:06:50.138Z,85.78
2017-10-08T00:07:50.153Z,85.69
2017-10-08T00:08:50.173Z,87.02
2017-10-08T00:09:50.549Z,86.36
2017-10-08T00:10:50.210Z,87.98
2017-10-08T00:11:50.232Z,87.02
2017-10-08T00:12:50.252Z,86.45
2017-10-08T00:13:50.270Z,85.12
2017-10-08T00:14:50.285Z,86.26
2017-10-08T00:15:50.624Z,86.45
2017-10-08T00:16:50.320Z,86.36
2017-10-08T00:17:50.345Z,84.16
2017-10-08T00:18:50.357Z,83.69
2017-10-08T00:19:50.377Z,83.59
2017-10-08T00:20:50.397Z,83.97
2017-10-08T00:21:50.419Z,84.16
2017-10-08T00:22:50.439Z,82.83
2017-10-08T00:23:50.447Z,83.69
2017-10-08T00:24:50.478Z,83.78
2017-10-08T00:25:50.538Z,84.55
2017-10-08T00:26:50.511Z,82.64
2017-10-08T00:27:50.543Z,84.74
2017-10-08T00:28:50.541Z,83.4
2017-10-08T00:29:50.568Z,82.64
2017-10-08T00:30:50.578Z,83.21
2017-10-08T00:31:50.601Z,83.21
2017-10-08T00:32:50.613Z,82.64
2017-10-08T00:33:50.636Z,84.26
2017-10-08T00:34:50.651Z,82.64
2017-10-08T00:35:50.681Z,84.83
2017-10-08T00:36:50.697Z,87.6
2017-10-08T00:37:50.707Z,88.02
2017-10-08T00:38:50.725Z,87.54
2017-10-08T00:39:50.748Z,88.02
2017-10-08T00:40:50.764Z,86.4
2017-10-08T00:41:50.783Z,86.49
2017-10-08T00:42:50.823Z,86.88
2017-10-08T00:43:50.823Z,86.3
2017-10-08T00:44:50.840Z,86.3
2017-10-08T00:45:50.856Z,86.69
2017-10-08T00:46:50.875Z,85.83
2017-10-08T00:47:50.894Z,86.4
2017-10-08T00:48:50.914Z,87.07
2017-10-08T00:49:50.935Z,86.21
2017-10-08T00:50:50.950Z,86.4
2017-10-08T00:51:50.971Z,84.88
2017-10-08T00:52:50.990Z,85.35
2017-10-08T00:53:51.318Z,87.35
2017-10-08T00:54:51.027Z,86.3
2017-10-08T00:55:51.047Z,86.59
2017-10-08T00:56:51.067Z,84.97
2017-10-08T00:57:51.082Z,84.69
2017-10-08T00:58:51.151Z,84.4
2017-10-08T00:59:51.120Z,84.4
2017-10-08T01:00:51.138Z,83.92
2017-10-08T01:01:51.474Z,84.11
2017-10-08T01:02:51.184Z,82.68
2017-10-08T01:03:51.203Z,84.3
2017-10-08T01:04:51.212Z,84.4
2017-10-08T01:05:51.231Z,87.16
2017-10-08T01:06:51.253Z,87.07
2017-10-08T01:07:51.272Z,84.97
2017-10-08T01:08:51.286Z,85.25
2017-10-08T01:09:51.306Z,84.88
2017-10-08T01:10:51.326Z,85.16
2017-10-08T01:11:51.661Z,83.25
2017-10-08T01:12:51.367Z,82.68
2017-10-08T01:13:51.381Z,84.59
2017-10-08T01:14:51.408Z,82.78
2017-10-08T01:15:51.423Z,84.2
2017-10-08T01:16:51.488Z,82.49
2017-10-08T01:17:51.463Z,82.97
2017-10-08T01:18:51.480Z,82.11
2017-10-08T01:19:51.493Z,83.73
2017-10-08T01:20:51.516Z,84.3
2017-10-08T01:21:51.539Z,83.06
2017-10-08T01:22:51.552Z,81.97
2017-10-08T01:23:51.567Z,82.26
2017-10-08T01:24:51.592Z,82.73
2017-10-08T01:25:51.605Z,82.45
2017-10-08T01:26:51.640Z,82.45
2017-10-08T01:27:51.645Z,82.26
2017-10-08T01:28:51.664Z,81.74
2017-10-08T01:29:51.681Z,81.65
2017-10-08T01:30:51.698Z,82.6
2017-10-08T01:31:52.390Z,82.6
2017-10-08T01:32:51.738Z,80.22
2017-10-08T01:33:51.761Z,79.46
2017-10-08T01:34:51.773Z,77.36
2017-10-08T01:35:51.791Z,76.4
2017-10-08T01:36:51.811Z,75.26
2017-10-08T01:37:52.144Z,75.07
2017-10-08T01:38:51.846Z,75.45
2017-10-08T01:39:51.923Z,74.21
2017-10-08T01:40:51.884Z,73.07
2017-10-08T01:41:51.919Z,73.17
2017-10-08T01:42:51.919Z,72.75
2017-10-08T01:43:51.939Z,73.13
2017-10-08T01:44:51.954Z,72.75
2017-10-08T01:45:51.975Z,73.8
2017-10-08T01:46:51.992Z,73.8
2017-10-08T01:47:52.012Z,73.13
2017-10-08T01:48:52.079Z,72.94
2017-10-08T01:49:52.046Z,74.27
2017-10-08T01:50:52.063Z,74.75
2017-10-08T01:51:52.082Z,76.27
2017-10-08T01:52:52.099Z,76.27
2017-10-08T01:53:52.117Z,76.08
2017-10-08T01:54:52.135Z,75.76
2017-10-08T01:55:52.156Z,76.71
2017-10-08T01:56:52.174Z,76.23
2017-10-08T01:57:52.190Z,77.19
2017-10-08T01:58:52.207Z,77.66
2017-10-08T01:59:52.223Z,77.98
2017-10-08T02:00:52.244Z,77.98
2017-10-08T02:01:52.262Z,77.51
2017-10-08T02:02:52.277Z,77.13
2017-10-08T02:03:52.349Z,78.85
2017-10-08T02:04:52.312Z,78.9
2017-10-08T02:05:52.333Z,78.75
2017-10-08T02:06:52.353Z,78.33
2017-10-08T02:07:52.368Z,79.41
2017-10-08T02:08:52.383Z,79.6
2017-10-08T02:09:52.399Z,79.7
2017-10-08T02:10:52.419Z,79.6
2017-10-08T02:11:52.438Z,79.32
2017-10-08T02:12:52.457Z,79.6
2017-10-08T02:13:52.471Z,79.99
2017-10-08T02:14:52.495Z,80.75
2017-10-08T02:15:52.510Z,81.85
2017-10-08T02:16:52.525Z,82.99
2017-10-08T02:17:52.541Z,82.99
2017-10-08T02:18:52.613Z,84.04
2017-10-08T02:19:52.596Z,85.08
2017-10-08T02:20:52.594Z,84.13
2017-10-08T02:21:52.615Z,83.94
2017-10-08T02:22:52.628Z,84.04
2017-10-08T02:23:52.645Z,83.56
2017-10-08T02:24:52.667Z,83.56
2017-10-08T02:25:52.682Z,84.52
2017-10-08T02:26:52.697Z,84.8
2017-10-08T02:27:52.718Z,85.08
2017-10-08T02:28:52.736Z,85.18
2017-10-08T02:29:52.749Z,85.66
2017-10-08T02:30:52.767Z,85.75
2017-10-08T02:31:52.785Z,86.13
2017-10-08T02:32:52.802Z,86.13
2017-10-08T02:33:52.839Z,85.85
2017-10-08T02:34:52.848Z,85.85
2017-10-08T02:35:52.856Z,85.47
2017-10-08T02:36:52.922Z,85.37
2017-10-08T02:37:52.901Z,85.47
2017-10-08T02:38:52.907Z,85.47
2017-10-08T02:39:52.923Z,85.85
2017-10-08T02:40:52.949Z,86.13
2017-10-08T02:41:52.967Z,85.85
2017-10-08T02:42:52.981Z,85.37
2017-10-08T02:43:53.000Z,83.37
2017-10-08T02:44:53.016Z,84.52
2017-10-08T02:45:53.030Z,83.85
2017-10-08T02:46:53.057Z,84.61
2017-10-08T02:47:53.074Z,85.08
2017-10-08T02:48:53.085Z,85.37
2017-10-08T02:49:53.096Z,84.33
2017-10-08T02:50:53.122Z,84.99
2017-10-08T02:51:53.137Z,84.99
2017-10-08T02:52:53.152Z,84.8
2017-10-08T02:53:53.170Z,84.61
2017-10-08T02:54:53.185Z,85.37
2017-10-08T02:55:53.204Z,85.66
2017-10-08T02:56:53.234Z,86.04
2017-10-08T02:57:53.239Z,85.94
2017-10-08T02:58:53.260Z,86.61
2017-10-08T02:59:53.276Z,87.65
2017-10-08T03:00:53.289Z,88.7
2017-10-08T03:01:53.310Z,88.42
2017-10-08T03:02:53.327Z,89.47
2017-10-08T03:03:53.347Z,91.13
2017-10-08T03:04:53.361Z,91.7
2017-10-08T03:05:53.379Z,93.04
2017-10-08T03:06:53.398Z,93.13
2017-10-08T03:07:53.411Z,93.89
2017-10-08T03:08:53.481Z,93.98
2017-10-08T03:09:53.443Z,95.17
2017-10-08T03:10:53.476Z,96.22
2017-10-08T03:11:53.478Z,96.69
2017-10-08T03:12:53.494Z,97.45
2017-10-08T03:13:53.513Z,98.41
2017-10-08T03:14:53.537Z,98.88
2017-10-08T03:15:53.555Z,98.12
2017-10-08T03:16:53.583Z,98.97
2017-10-08T03:17:53.594Z,98.88
2017-10-08T03:18:53.599Z,98.03
2017-10-08T03:19:53.612Z,98.31
2017-10-08T03:20:53.632Z,98.31
2017-10-08T03:21:53.652Z,97.17
2017-10-08T03:22:53.665Z,97.64
2017-10-08T03:23:53.733Z,98.5
2017-10-08T03:24:53.697Z,97.74
2017-10-08T03:25:53.715Z,97.55
2017-10-08T03:26:53.733Z,97.64
2017-10-08T03:27:53.749Z,96.6
2017-10-08T03:28:53.767Z,97.55
2017-10-08T03:29:53.783Z,96.79
2017-10-08T03:30:53.798Z,97.64
2017-10-08T03:31:53.814Z,96.41
2017-10-08T03:32:53.834Z,96.98
2017-10-08T03:33:53.868Z,96.98
2017-10-08T03:34:53.863Z,96.69
2017-10-08T03:35:53.879Z,96.41
2017-10-08T03:36:53.897Z,97.08
2017-10-08T03:37:53.914Z,96.79
2017-10-08T03:38:54.077Z,96.22
2017-10-08T03:39:53.946Z,94.51
2017-10-08T03:40:53.960Z,95.08
2017-10-08T03:41:53.980Z,94.89
2017-10-08T03:42:53.995Z,94.13
2017-10-08T03:43:54.010Z,94.89
2017-10-08T03:44:54.026Z,94.42
2017-10-08T03:45:54.041Z,94.7
2017-10-08T03:46:54.058Z,94.6
2017-10-08T03:47:54.083Z,95.46
2017-10-08T03:48:54.089Z,95.75
2017-10-08T03:49:54.112Z,94.51
2017-10-08T03:50:54.128Z,94.32
2017-10-08T03:51:54.140Z,92.89
2017-10-08T03:52:54.160Z,92.89
2017-10-08T03:53:54.226Z,92.7
2017-10-08T03:54:54.190Z,92.51
2017-10-08T03:55:54.219Z,92.51
2017-10-08T03:56:54.543Z,92.41
2017-10-08T03:57:54.241Z,92.89
2017-10-08T03:58:54.258Z,93.08
2017-10-08T03:59:54.272Z,91.75
2017-10-08T04:00:54.288Z,91.28
2017-10-08T04:01:54.307Z,91.75
2017-10-08T04:02:54.322Z,91.56
2017-10-08T04:03:54.339Z,90.52
2017-10-08T04:04:54.356Z,90.33
2017-10-08T04:05:54.370Z,90.7
2017-10-08T04:06:54.387Z,91.47
2017-10-08T04:07:54.408Z,90.14
2017-10-08T04:08:54.476Z,89.47
2017-10-08T04:09:54.443Z,89.37
2017-10-08T04:10:54.455Z,89.18
2017-10-08T04:11:54.475Z,90.14
2017-10-08T04:12:54.488Z,89.66
2017-10-08T04:13:54.506Z,90.14
2017-10-08T04:14:54.524Z,90.52
2017-10-08T04:15:54.537Z,88.94
2017-10-08T04:16:54.556Z,88.56
2017-10-08T04:17:54.572Z,88.18
2017-10-08T04:18:54.588Z,88.09
2017-10-08T04:19:54.604Z,87.52
2017-10-08T04:20:54.625Z,87.04
2017-10-08T04:21:54.950Z,86.38
2017-10-08T04:22:54.658Z,86.76
2017-10-08T04:23:54.721Z,86.38
2017-10-08T04:24:54.689Z,86.9
2017-10-08T04:25:54.706Z,86.85
2017-10-08T04:26:54.723Z,86.66
2017-10-08T04:27:54.741Z,86.28
2017-10-08T04:28:54.759Z,86.28
2017-10-08T04:29:54.771Z,86.57
2017-10-08T04:30:54.787Z,85.9
2017-10-08T04:31:54.814Z,86.24
2017-10-08T04:32:54.823Z,86.05
2017-10-08T04:33:54.841Z,86.24
2017-10-08T04:34:54.853Z,86.24
2017-10-08T04:35:54.871Z,85.95
2017-10-08T04:36:54.891Z,85.76
2017-10-08T04:37:54.909Z,85.95
2017-10-08T04:38:54.923Z,85.66
2017-10-08T04:39:54.941Z,85.9
2017-10-08T04:40:54.960Z,85.04
2017-10-08T04:41:55.026Z,85.61
2017-10-08T04:42:55.004Z,85.99
2017-10-08T04:43:55.004Z,85.42
2017-10-08T04:44:55.027Z,84.66
2017-10-08T04:45:55.041Z,84.28
2017-10-08T04:46:55.059Z,84.38
2017-10-08T04:47:55.078Z,84.38
2017-10-08T04:48:55.115Z,84.95
2017-10-08T04:49:55.108Z,84.38
2017-10-08T04:50:55.124Z,84.19
2017-10-08T04:51:55.147Z,84.76
2017-10-08T04:52:55.160Z,84.28
2017-10-08T04:53:55.490Z,84
2017-10-08T04:54:55.207Z,83.33
2017-10-08T04:55:55.211Z,84.28
2017-10-08T04:56:55.225Z,84.28
2017-10-08T04:57:55.296Z,84
2017-10-08T04:58:55.260Z,84.28
2017-10-08T04:59:55.276Z,83.42
2017-10-08T05:00:55.292Z,83.71
2017-10-08T05:01:55.315Z,83.9
2017-10-08T05:02:55.330Z,83.62
2017-10-08T05:03:55.351Z,83.62
2017-10-08T05:04:55.361Z,83.14
2017-10-08T05:05:55.383Z,82.57
2017-10-08T05:06:55.407Z,82.86
2017-10-08T05:07:55.414Z,82.86
2017-10-08T05:08:55.451Z,82.38
2017-10-08T05:09:55.446Z,83.04
2017-10-08T05:10:55.463Z,83.14
2017-10-08T05:11:55.482Z,82.7
2017-10-08T05:12:55.497Z,82.42
2017-10-08T05:13:55.572Z,81.85
2017-10-08T05:14:55.533Z,82.04
2017-10-08T05:15:55.549Z,82.23
2017-10-08T05:16:55.568Z,82.14
2017-10-08T05:17:55.586Z,81.85
2017-10-08T05:18:55.599Z,81.76
2017-10-08T05:19:55.619Z,81.66
2017-10-08T05:20:55.636Z,82.23
2017-10-08T05:21:55.652Z,82.04
2017-10-08T05:22:55.699Z,81.95
2017-10-08T05:23:55.686Z,82.04
2017-10-08T05:24:55.707Z,81.95
2017-10-08T05:25:55.724Z,81.95
2017-10-08T05:26:55.741Z,81.95
2017-10-08T05:27:55.760Z,81.95
2017-10-08T05:28:55.821Z,81.66
2017-10-08T05:29:55.792Z,82.7
2017-10-08T05:30:55.809Z,81.85
2017-10-08T05:31:55.848Z,81.95
2017-10-08T05:32:55.842Z,81.95
2017-10-08T05:33:55.859Z,82.42
2017-10-08T05:34:55.879Z,81.95
2017-10-08T05:35:55.893Z,81.76
2017-10-08T05:36:55.919Z,81.85
2017-10-08T05:37:55.927Z,81.95
2017-10-08T05:38:55.944Z,81.95
2017-10-08T05:39:55.960Z,81.85
2017-10-08T05:40:55.983Z,81.95
2017-10-08T05:41:55.994Z,81.09
2017-10-08T05:42:56.017Z,80.9
2017-10-08T05:43:56.036Z,81.66
2017-10-08T05:44:56.051Z,82.23
2017-10-08T05:45:56.114Z,81.95
2017-10-08T05:46:56.083Z,81.95
2017-10-08T05:47:56.098Z,81.85
2017-10-08T05:48:56.122Z,81.85
2017-10-08T05:49:56.134Z,81.66
2017-10-08T05:50:56.148Z,82.04
2017-10-08T05:51:56.167Z,81.76
2017-10-08T05:52:56.186Z,81.76
2017-10-08T05:53:56.207Z,81.85
2017-10-08T05:54:56.226Z,81.95
2017-10-08T05:55:56.243Z,81.51
2017-10-08T05:56:56.253Z,81.85
2017-10-08T05:57:56.289Z,81.28
2017-10-08T05:58:56.289Z,82.23
2017-10-08T05:59:56.621Z,81.95
2017-10-08T06:00:56.373Z,82.08
2017-10-08T06:01:56.338Z,81.56
2017-10-08T06:02:56.360Z,82.61
2017-10-08T06:03:56.383Z,81.56
2017-10-08T06:04:56.391Z,82.04
2017-10-08T06:05:56.409Z,81.85
2017-10-08T06:06:56.429Z,82.8
2017-10-08T06:07:56.455Z,82.51
2017-10-08T06:08:56.480Z,81.95
2017-10-08T06:09:56.480Z,82.42
2017-10-08T06:10:56.495Z,82.42
2017-10-08T06:11:56.516Z,83.09
2017-10-08T06:12:56.531Z,82.9
2017-10-08T06:13:56.548Z,83.65
2017-10-08T06:14:56.562Z,82.7
2017-10-08T06:15:56.639Z,83.37
2017-10-08T06:16:56.597Z,83.28
2017-10-08T06:17:56.615Z,83.09
2017-10-08T06:18:56.632Z,83.85
2017-10-08T06:19:56.649Z,84.23
2017-10-08T06:20:56.665Z,84.89
2017-10-08T06:21:56.685Z,84.23
2017-10-08T06:22:56.724Z,84.52
2017-10-08T06:23:56.717Z,85.08
2017-10-08T06:24:56.733Z,84.99
2017-10-08T06:25:56.754Z,84.61
2017-10-08T06:26:56.767Z,85.18
2017-10-08T06:27:56.789Z,84.89
2017-10-08T06:28:56.806Z,84.23
2017-10-08T06:29:56.823Z,84.13
2017-10-08T06:30:56.887Z,84.04
2017-10-08T06:31:56.860Z,84.42
2017-10-08T06:32:56.877Z,84.33
2017-10-08T06:33:56.890Z,84.61
2017-10-08T06:34:56.908Z,83.32
2017-10-08T06:35:56.928Z,83.56
2017-10-08T06:36:56.943Z,83.47
2017-10-08T06:37:57.035Z,83.56
2017-10-08T06:38:56.984Z,83.7
2017-10-08T06:39:56.999Z,83.61
2017-10-08T06:40:57.013Z,84.33
2017-10-08T06:41:57.034Z,83.75
2017-10-08T06:42:57.051Z,83.61
2017-10-08T06:43:57.060Z,84.36
2017-10-08T06:44:57.079Z,84.27
2017-10-08T06:45:57.147Z,83.32
2017-10-08T06:46:57.121Z,83.8
2017-10-08T06:47:57.132Z,83.32
2017-10-08T06:48:57.155Z,84.46
2017-10-08T06:49:57.167Z,83.51
2017-10-08T06:50:57.184Z,85.03
2017-10-08T06:51:57.200Z,85.32
2017-10-08T06:52:57.222Z,85.03
2017-10-08T06:53:57.553Z,84.99
2017-10-08T06:54:57.568Z,85.56
2017-10-08T06:55:57.279Z,85.94
2017-10-08T06:56:57.292Z,86.04
2017-10-08T06:57:57.309Z,86.04
2017-10-08T06:58:57.324Z,86.18
2017-10-08T06:59:57.365Z,85.66
2017-10-08T07:00:57.359Z,86.18
2017-10-08T07:01:57.375Z,85.47
2017-10-08T07:02:57.400Z,86.42
2017-10-08T07:03:57.413Z,85.94
2017-10-08T07:04:57.429Z,85.8
2017-10-08T07:05:57.446Z,86.04
2017-10-08T07:06:57.463Z,86.18
2017-10-08T07:07:57.489Z,86.46
2017-10-08T07:08:57.503Z,86.55
2017-10-08T07:09:57.514Z,86.7
2017-10-08T07:10:57.531Z,88.32
2017-10-08T07:11:57.551Z,88.7
2017-10-08T07:12:57.568Z,88.6
2017-10-08T07:13:57.589Z,88.42
2017-10-08T07:14:57.604Z,88.7
2017-10-08T07:15:57.624Z,89.08
2017-10-08T07:16:57.638Z,89.37
2017-10-08T07:17:57.658Z,89.18
2017-10-08T07:18:57.983Z,88.42
2017-10-08T07:19:57.688Z,89.47
2017-10-08T07:20:57.757Z,89.18
2017-10-08T07:21:57.727Z,89.56
2017-10-08T07:22:57.752Z,89.47
2017-10-08T07:23:57.757Z,89.37
2017-10-08T07:24:57.779Z,90.8
2017-10-08T07:25:57.796Z,89.94
2017-10-08T07:26:57.814Z,90.61
2017-10-08T07:27:57.832Z,90.51
2017-10-08T07:28:57.846Z,90.61
2017-10-08T07:29:57.869Z,90.8
2017-10-08T07:30:57.886Z,91.08
2017-10-08T07:31:57.899Z,90.65
2017-10-08T07:32:57.917Z,90.65
2017-10-08T07:33:58.255Z,88.84
2017-10-08T07:34:57.952Z,89.22
2017-10-08T07:35:58.019Z,89.22
2017-10-08T07:36:58.000Z,88.93
2017-10-08T07:37:58.010Z,89.89
2017-10-08T07:38:58.021Z,89.79
2017-10-08T07:39:58.039Z,89.98
2017-10-08T07:40:58.382Z,90.75
2017-10-08T07:41:58.077Z,89.89
2017-10-08T07:42:58.092Z,90.36
2017-10-08T07:43:58.108Z,90.46
2017-10-08T07:44:58.127Z,89.32
2017-10-08T07:45:58.143Z,89.84
2017-10-08T07:46:58.161Z,89.98
2017-10-08T07:47:58.180Z,89.61
2017-10-08T07:48:58.202Z,89.13
2017-10-08T07:49:58.217Z,89.08
2017-10-08T07:50:58.285Z,89.89
2017-10-08T07:51:58.255Z,88.84
2017-10-08T07:52:58.269Z,88.56
2017-10-08T07:53:58.286Z,88.46
2017-10-08T07:54:58.305Z,88.75
2017-10-08T07:55:58.632Z,88.56
2017-10-08T07:56:58.337Z,88.37
2017-10-08T07:57:58.664Z,88.18
2017-10-08T07:58:58.379Z,88.37
2017-10-08T07:59:58.393Z,87.55
2017-10-08T08:00:58.410Z,86.98
2017-10-08T08:01:58.431Z,87.36
2017-10-08T08:02:58.444Z,86.79
2017-10-08T08:03:58.460Z,86.79
2017-10-08T08:04:58.479Z,86.79
2017-10-08T08:05:58.497Z,85.93
2017-10-08T08:06:58.573Z,85.84
2017-10-08T08:07:58.540Z,86.51
2017-10-08T08:08:58.558Z,86.22
2017-10-08T08:09:58.567Z,86.22
2017-10-08T08:10:58.593Z,85.55
2017-10-08T08:11:58.618Z,85.84
2017-10-08T08:12:58.623Z,85.55
2017-10-08T08:13:58.642Z,85.84
2017-10-08T08:14:58.671Z,86.12
2017-10-08T08:15:58.678Z,86.41
2017-10-08T08:16:58.703Z,85.55
2017-10-08T08:17:58.711Z,86.32
2017-10-08T08:18:58.735Z,85.93
2017-10-08T08:19:58.750Z,85.46
2017-10-08T08:20:58.769Z,85.84
2017-10-08T08:21:58.849Z,86.12
2017-10-08T08:22:58.802Z,85.36
2017-10-08T08:23:58.820Z,85.27
2017-10-08T08:24:58.840Z,85.74
2017-10-08T08:25:58.857Z,85.17
2017-10-08T08:26:58.874Z,85.17
2017-10-08T08:27:58.893Z,84.79
2017-10-08T08:28:58.915Z,85.08
2017-10-08T08:29:58.937Z,84.92
2017-10-08T08:30:59.252Z,84.07
2017-10-08T08:31:59.276Z,83.4
2017-10-08T08:32:58.986Z,83.12
2017-10-08T08:33:59.002Z,83.5
2017-10-08T08:34:59.019Z,83.78
2017-10-08T08:35:59.038Z,83.59
2017-10-08T08:36:59.055Z,83.12
2017-10-08T08:37:59.078Z,83.02
2017-10-08T08:38:59.094Z,82.73
2017-10-08T08:39:59.161Z,82.35
2017-10-08T08:40:59.127Z,82.73
2017-10-08T08:41:59.145Z,82.83
2017-10-08T08:42:59.165Z,82.17
2017-10-08T08:43:59.198Z,81.97
2017-10-08T08:44:59.204Z,82.54
2017-10-08T08:45:59.222Z,82.73
2017-10-08T08:46:59.238Z,82.73
2017-10-08T08:47:59.257Z,82.64
2017-10-08T08:48:59.273Z,82.83
2017-10-08T08:49:59.297Z,82.54
2017-10-08T08:50:59.310Z,82.83
2017-10-08T08:51:59.329Z,82.92
2017-10-08T08:52:59.349Z,83.02
2017-10-08T08:53:59.369Z,83.21
2017-10-08T08:54:59.438Z,82.83
2017-10-08T08:55:59.401Z,81.78
2017-10-08T08:56:59.421Z,81.97
2017-10-08T08:57:59.447Z,81.97
2017-10-08T08:58:59.463Z,82.54
2017-10-08T08:59:59.481Z,82.45
2017-10-08T09:00:59.496Z,82.17
2017-10-08T09:01:59.516Z,82.07
2017-10-08T09:02:59.534Z,82.26
2017-10-08T09:03:59.872Z,81.44
2017-10-08T09:04:59.573Z,80.96
2017-10-08T09:05:59.596Z,81.63
2017-10-08T09:06:59.614Z,81.44
2017-10-08T09:07:59.634Z,81.54
2017-10-08T09:08:59.650Z,81.25
2017-10-08T09:09:59.715Z,80.77
2017-10-08T09:10:59.683Z,81.73
2017-10-08T09:11:59.700Z,81.06
2017-10-08T09:13:00.034Z,80.77
2017-10-08T09:13:59.739Z,81.15
2017-10-08T09:14:59.757Z,81.15
2017-10-08T09:15:59.778Z,82.07
2017-10-08T09:16:59.802Z,81.06
2017-10-08T09:17:59.816Z,80.68
2017-10-08T09:18:59.835Z,81.15
2017-10-08T09:19:59.855Z,81.06
2017-10-08T09:20:59.872Z,80.3
2017-10-08T09:21:59.898Z,80.49
2017-10-08T09:22:59.910Z,80.3
2017-10-08T09:23:59.930Z,81.15
2017-10-08T09:24:59.949Z,80.49
2017-10-08T09:25:59.968Z,80.58
2017-10-08T09:27:00.040Z,81.15
2017-10-08T09:28:00.004Z,80.77
2017-10-08T09:29:00.024Z,80.58
2017-10-08T09:30:00.047Z,80.39
2017-10-08T09:31:00.067Z,79.77
2017-10-08T09:32:00.084Z,79.38
2017-10-08T09:33:00.100Z,79
2017-10-08T09:34:00.122Z,79.38
2017-10-08T09:35:00.143Z,79.48
2017-10-08T09:36:00.157Z,79.57
2017-10-08T09:37:00.177Z,78.91
2017-10-08T09:38:00.206Z,77.19
2017-10-08T09:39:00.214Z,77.42
2017-10-08T09:40:00.236Z,77.7
2017-10-08T09:41:00.257Z,77.8
2017-10-08T09:42:00.325Z,77.13
2017-10-08T09:43:00.294Z,77.95
2017-10-08T09:44:00.314Z,78.72
2017-10-08T09:45:00.333Z,78.05
2017-10-08T09:46:00.354Z,78.62
2017-10-08T09:47:00.686Z,78.09
2017-10-08T09:48:00.707Z,77.7
2017-10-08T09:49:00.726Z,77.23
2017-10-08T09:50:00.434Z,77.89
2017-10-08T09:51:00.447Z,77.76
2017-10-08T09:52:00.468Z,77.47
2017-10-08T09:53:00.502Z,78.23
2017-10-08T09:54:00.509Z,78.43
2017-10-08T09:55:00.531Z,78.91
2017-10-08T09:56:00.547Z,79.57
2017-10-08T09:57:00.618Z,79.67
2017-10-08T09:58:00.588Z,79.77
2017-10-08T09:59:00.628Z,79.82
2017-10-08T10:00:00.623Z,80.15
2017-10-08T10:01:00.641Z,79.72
2017-10-08T10:02:00.669Z,79.77
2017-10-08T10:03:00.680Z,80.77
2017-10-08T10:04:00.700Z,80.58
2017-10-08T10:05:00.719Z,80.01
2017-10-08T10:06:00.740Z,79.48
2017-10-08T10:07:00.757Z,79.48
2017-10-08T10:08:00.776Z,79
2017-10-08T10:09:00.799Z,78.43
2017-10-08T10:10:00.814Z,78.91
2017-10-08T10:11:00.833Z,78.52
2017-10-08T10:12:00.852Z,78.62
2017-10-08T10:13:00.878Z,78.91
2017-10-08T10:14:00.908Z,78.52
2017-10-08T10:15:00.916Z,78.23
2017-10-08T10:16:00.934Z,78.62
2017-10-08T10:17:00.952Z,78.23
2017-10-08T10:18:00.969Z,78.72
2017-10-08T10:19:00.987Z,77.7
2017-10-08T10:20:01.008Z,77.61
2017-10-08T10:21:01.028Z,78.56
2017-10-08T10:22:01.051Z,78.91
2017-10-08T10:23:01.068Z,78.33
2017-10-08T10:24:01.086Z,78.47
2017-10-08T10:25:01.111Z,77.99
2017-10-08T10:26:01.127Z,77.7
2017-10-08T10:27:01.196Z,78.33
2017-10-08T10:28:01.162Z,78.94
2017-10-08T10:29:01.503Z,78.62
2017-10-08T10:30:01.204Z,78.62
2017-10-08T10:31:01.228Z,79.19
2017-10-08T10:32:01.241Z,79.1
2017-10-08T10:33:01.262Z,78.94
2017-10-08T10:34:01.285Z,79
2017-10-08T10:35:01.302Z,79.77
2017-10-08T10:36:01.322Z,80.15
2017-10-08T10:37:01.340Z,80.33
2017-10-08T10:38:01.367Z,80.24
2017-10-08T10:39:01.381Z,80.43
2017-10-08T10:40:01.401Z,80.62
2017-10-08T10:41:01.420Z,80.15
2017-10-08T10:42:01.445Z,80.72
2017-10-08T10:43:01.457Z,80.33
2017-10-08T10:44:01.483Z,80.33
2017-10-08T10:45:01.549Z,80.05
2017-10-08T10:46:01.512Z,80.15
2017-10-08T10:47:01.537Z,79.99
2017-10-08T10:48:01.556Z,79.71
2017-10-08T10:49:01.573Z,79.52
2017-10-08T10:50:01.595Z,79.71
2017-10-08T10:51:01.614Z,79.04
2017-10-08T10:52:01.635Z,79.52
2017-10-08T10:53:01.654Z,79.99
2017-10-08T10:54:01.676Z,80.57
2017-10-08T10:55:01.690Z,80.81
2017-10-08T10:56:01.715Z,81.58
2017-10-08T10:57:01.834Z,82.15
2017-10-08T10:58:01.763Z,81.67
2017-10-08T10:59:01.897Z,81.2
2017-10-08T11:00:01.812Z,80.91
2017-10-08T11:01:01.813Z,80.95
2017-10-08T11:02:01.828Z,80.76
2017-10-08T11:03:01.855Z,80.66
2017-10-08T11:04:01.865Z,79.8
2017-10-08T11:05:01.889Z,78.99
2017-10-08T11:06:01.911Z,79.8
2017-10-08T11:07:01.924Z,79.9
2017-10-08T11:08:01.945Z,81.33
2017-10-08T11:09:01.970Z,81.48
2017-10-08T11:10:01.994Z,81.2
2017-10-08T11:11:02.003Z,81.14
2017-10-08T11:12:02.031Z,81.71
2017-10-08T11:13:02.041Z,82.09
2017-10-08T11:14:02.061Z,82.29
2017-10-08T11:15:02.091Z,82.38
2017-10-08T11:16:02.105Z,82.29
2017-10-08T11:17:02.174Z,82.15
2017-10-08T11:18:02.141Z,82.24
2017-10-08T11:19:02.163Z,82.72
2017-10-08T11:20:02.179Z,81.77
2017-10-08T11:21:02.198Z,82.15
2017-10-08T11:22:02.217Z,82.34
2017-10-08T11:23:02.236Z,82.24
2017-10-08T11:24:02.259Z,82.06
2017-10-08T11:25:02.275Z,82.15
2017-10-08T11:26:02.297Z,82.06
2017-10-08T11:27:02.315Z,83.01
2017-10-08T11:28:02.336Z,81.96
2017-10-08T11:29:02.356Z,82.43
2017-10-08T11:30:02.375Z,82.24
2017-10-08T11:31:02.391Z,82.06
2017-10-08T11:32:02.460Z,81.96
2017-10-08T11:33:02.434Z,82.15
2017-10-08T11:34:02.481Z,82.24
2017-10-08T11:35:02.473Z,81.71
2017-10-08T11:36:02.529Z,81.71
2017-10-08T11:37:02.536Z,81.52
2017-10-08T11:38:02.536Z,82.06
2017-10-08T11:39:02.550Z,82.53
2017-10-08T11:40:02.574Z,81.48
2017-10-08T11:41:02.585Z,81.71
2017-10-08T11:42:02.605Z,81.71
2017-10-08T11:43:02.625Z,81.86
2017-10-08T11:44:02.643Z,81.67
2017-10-08T11:45:03.213Z,82.19
2017-10-08T11:46:02.685Z,81.38
2017-10-08T11:47:02.701Z,81.58
2017-10-08T11:48:02.725Z,81.62
2017-10-08T11:49:02.818Z,81.33
2017-10-08T11:50:02.758Z,80.76
2017-10-08T11:51:02.782Z,80.47
2017-10-08T11:52:03.115Z,80.85
2017-10-08T11:53:02.823Z,80.76
2017-10-08T11:54:02.836Z,80.28
2017-10-08T11:55:02.853Z,79.99
2017-10-08T11:56:02.874Z,80.22
2017-10-08T11:57:02.896Z,81.04
2017-10-08T11:58:02.949Z,80.47
2017-10-08T11:59:03.246Z,80.57
2017-10-08T12:00:02.950Z,80.28
2017-10-08T12:01:02.970Z,79.9
2017-10-08T12:02:02.989Z,80.57
2017-10-08T12:03:03.018Z,79.8
2017-10-08T12:04:03.042Z,79.8
2017-10-08T12:05:03.101Z,79.46
2017-10-08T12:06:03.070Z,79.27
2017-10-08T12:07:03.092Z,79.65
2017-10-08T12:08:03.107Z,79.56
2017-10-08T12:09:03.128Z,79.56
2017-10-08T12:10:03.155Z,78.89
2017-10-08T12:11:03.185Z,78.6
2017-10-08T12:12:03.188Z,78.7
2017-10-08T12:13:03.205Z,78.7
2017-10-08T12:14:03.229Z,78.22
2017-10-08T12:15:03.247Z,77.97
2017-10-08T12:16:03.274Z,78.31
2017-10-08T12:17:03.289Z,77.87
2017-10-08T12:18:03.314Z,77.94
2017-10-08T12:19:03.329Z,78.16
2017-10-08T12:20:03.347Z,77.74
2017-10-08T12:21:03.369Z,77.69
2017-10-08T12:22:03.413Z,77.87
2017-10-08T12:23:03.411Z,78.03
2017-10-08T12:24:03.427Z,77.5
2017-10-08T12:25:03.448Z,77.4
2017-10-08T12:26:03.466Z,76.64
2017-10-08T12:27:03.493Z,76.54
2017-10-08T12:28:03.511Z,77.3
2017-10-08T12:29:03.525Z,77.55
2017-10-08T12:30:03.553Z,77.65
2017-10-08T12:31:03.567Z,78.31
2017-10-08T12:32:03.592Z,78.89
2017-10-08T12:33:03.724Z,79.08
2017-10-08T12:34:03.628Z,78.99
2017-10-08T12:35:03.647Z,78.6
2017-10-08T12:36:03.670Z,78.89
2017-10-08T12:37:03.693Z,78.79
2017-10-08T12:38:03.763Z,79.17
2017-10-08T12:39:04.066Z,77.84
2017-10-08T12:40:03.767Z,78.31
2017-10-08T12:41:03.771Z,78.41
2017-10-08T12:42:03.788Z,78.51
2017-10-08T12:43:03.813Z,78.41
2017-10-08T12:44:03.828Z,78.79
2017-10-08T12:45:04.198Z,78.31
2017-10-08T12:46:03.875Z,78.79
2017-10-08T12:47:03.890Z,79.46
2017-10-08T12:48:03.909Z,79.56
2017-10-08T12:49:03.961Z,79.85
2017-10-08T12:50:03.953Z,80.32
2017-10-08T12:51:04.029Z,80.09
2017-10-08T12:52:03.997Z,80.13
2017-10-08T12:53:04.021Z,80.04
2017-10-08T12:54:04.042Z,79.27
2017-10-08T12:55:04.050Z,79.99
2017-10-08T12:56:04.116Z,80.47